Terminal Aerodrome Forecast
Issued by NWS

Home | Current Version | Previous Version | Text Only | Print | Product List | Glossary On
Versions: 1 2 3 4 5 6 7 8 9 10 11 12 13
000
FTUS43 KEAX 261100
TAFSTJ
TAF
KSTJ 261133Z 2612/2712 35009KT P6SM SKC
     FM262100 36008KT P6SM OVC080
     FM270200 03006KT P6SM VCSH OVC025
     FM270900 01006KT P6SM SCT050=

USA.gov is the U.S. government's official web portal to all federal, state and local government web resources and services.